This is the latest recevied weather packets stored in our database for station/object PA1CG-7. If no packets are shown the sender has not sent any weather packets the latest 10 day(s).
| Time | Temp. | Humidity | Pressure | Rain* | Wind** | Luminosity | Snow |
|---|---|---|---|---|---|---|---|
| 1778067136 | 14.44° C | 68% | 1009.7 hPa | 0 mm | - | - | - |
| 1778066537 | 14.44° C | 69% | 1009.7 hPa | 0 mm | - | - | - |
| 1778065937 | 14.44° C | 69% | 1009.7 hPa | 0 mm | - | - | - |
| 1778065336 | 15° C | 68% | 1009.7 hPa | 0 mm | - | - | - |
| 1778064737 | 15° C | 69% | 1009.6 hPa | 0 mm | - | - | - |
| 1778064136 | 15° C | 70% | 1009.6 hPa | 0 mm | - | - | - |
| 1778063536 | 15° C | 71% | 1009.6 hPa | 0 mm | - | - | - |
| 1778062936 | 15° C | 70% | 1009.6 hPa | 0 mm | - | - | - |
| 1778062336 | 15.56° C | 67% | 1009.6 hPa | 0 mm | - | - | - |
| 1778061736 | 15.56° C | 70% | 1009.4 hPa | 0 mm | - | - | - |
| 1778061136 | 15° C | 70% | 1009.6 hPa | 0 mm | - | - | - |
| 1778060536 | 13.89° C | 72% | 1009.4 hPa | 0 mm | - | - | - |
| 1778059936 | 13.89° C | 72% | 1009.5 hPa | 0 mm | - | - | - |
| 1778059336 | 14.44° C | 72% | 1009.4 hPa | 0 mm | - | - | - |
| 1778058736 | 14.44° C | 72% | 1009.4 hPa | 0 mm | - | - | - |
| 1778058137 | 13.89° C | 74% | 1009.3 hPa | 0 mm | - | - | - |
| 1778057536 | 13.89° C | 75% | 1009.3 hPa | 0 mm | - | - | - |
| 1778056936 | 13.33° C | 75% | 1009.2 hPa | 0 mm | - | - | - |
| 1778056336 | 13.33° C | 75% | 1009.2 hPa | 0 mm | - | - | - |
| 1778055736 | 13.33° C | 76% | 1009.1 hPa | 0 mm | - | - | - |
| 1778055136 | 13.33° C | 77% | 1009.1 hPa | 0 mm | - | - | - |
| 1778054536 | 12.78° C | 78% | 1009.2 hPa | 0 mm | - | - | - |
| 1778053936 | 12.78° C | 78% | 1009.3 hPa | 0 mm | - | - | - |
| 1778053336 | 12.78° C | 78% | 1009.2 hPa | 0 mm | - | - | - |
| 1778052736 | 12.78° C | 78% | 1009.1 hPa | 0 mm | - | - | - |
* Rain latest hour (hover to see other rain measurements)
** Current wind speed in m/s (hover to see current wind gust speed)